Time;durP1;ratioP1;P1;durP2;ratioP2;P2;SDS_P1;SDS_P2;PMS_P1;PMS_P2;Temp;Humidity;BMP_temperature;BMP_pressure;BME280_temperature;BME280_humidity;BME280_pressure;Samples;Min_cycle;Max_cycle;Signal;HPM_P1;HPM_P2
2022/05/06 00:02:11;;;;;;;99.13;51.90;;;;;;;11.14;88.74;102437.97;5043855;28;20033;-66
2022/05/06 00:04:37;;;;;;;102.38;53.70;;;;;;;11.12;89.42;102436.47;5044686;28;20483;-66
2022/05/06 00:07:03;;;;;;;105.35;54.08;;;;;;;11.08;89.20;102436.00;5043886;28;20025;-66
2022/05/06 00:09:29;;;;;;;103.82;53.00;;;;;;;11.05;89.67;102428.16;5043496;28;20247;-67
2022/05/06 00:11:54;;;;;;;107.97;56.70;;;;;;;11.03;89.83;102437.66;5043378;28;20490;-66
2022/05/06 00:14:19;;;;;;;107.90;58.22;;;;;;;11.00;89.71;102435.28;5042655;28;20395;-67
2022/05/06 00:16:45;;;;;;;105.63;55.60;;;;;;;10.98;89.90;102432.72;5043204;28;20082;-67
2022/05/06 00:19:10;;;;;;;108.00;55.03;;;;;;;10.94;90.20;102436.91;5043756;28;20044;-67
2022/05/06 00:21:36;;;;;;;110.25;57.33;;;;;;;10.91;89.93;102440.06;5041992;28;20464;-67
2022/05/06 00:24:03;;;;;;;108.25;56.72;;;;;;;10.89;89.70;102450.38;5044448;28;20029;-66
2022/05/06 00:26:28;;;;;;;109.55;57.42;;;;;;;10.86;90.49;102446.13;5038097;28;20106;-66
2022/05/06 00:28:53;;;;;;;108.93;57.60;;;;;;;10.82;90.25;102441.22;5044721;28;20059;-66
2022/05/06 00:31:18;;;;;;;116.07;60.08;;;;;;;10.81;90.62;102442.28;5042416;28;20119;-66
2022/05/06 00:33:44;;;;;;;110.13;59.03;;;;;;;10.77;90.20;102447.28;5042703;28;20041;-67
2022/05/06 00:36:09;;;;;;;109.55;58.67;;;;;;;10.72;90.61;102444.28;5042564;28;20467;-65
2022/05/06 00:38:34;;;;;;;116.38;59.97;;;;;;;10.68;90.58;102447.59;5042201;28;20029;-67
2022/05/06 00:41:00;;;;;;;108.80;58.08;;;;;;;10.60;91.04;102445.81;5043465;28;20037;-67
2022/05/06 00:43:25;;;;;;;113.78;59.00;;;;;;;10.58;90.74;102453.38;5025891;28;20029;-66
2022/05/06 00:45:53;;;;;;;112.10;59.47;;;;;;;10.52;90.83;102448.66;5044610;28;20025;-66
2022/05/06 00:48:23;;;;;;;108.40;57.65;;;;;;;10.48;90.58;102448.19;5041614;28;20420;-66
2022/05/06 00:50:49;;;;;;;116.25;59.58;;;;;;;10.49;90.98;102444.41;5023501;28;20447;-66
2022/05/06 00:53:15;;;;;;;120.10;61.53;;;;;;;10.48;91.14;102445.44;5006581;28;20022;-66
2022/05/06 00:55:41;;;;;;;117.07;62.08;;;;;;;10.45;91.10;102443.09;5032391;28;20032;-67
2022/05/06 00:58:07;;;;;;;109.82;59.50;;;;;;;10.46;91.17;102442.03;5043014;28;20139;-66
2022/05/06 01:00:32;;;;;;;116.97;63.30;;;;;;;10.41;91.10;102443.66;5037199;28;20096;-67
2022/05/06 01:02:58;;;;;;;119.70;64.18;;;;;;;10.39;91.28;102450.19;5041873;28;20700;-66
2022/05/06 01:05:24;;;;;;;120.28;65.40;;;;;;;10.36;91.36;102447.81;5042798;28;20033;-66
2022/05/06 01:07:50;;;;;;;115.80;62.42;;;;;;;10.33;91.62;102442.69;5043113;28;20049;-67
2022/05/06 01:10:18;;;;;;;119.35;63.90;;;;;;;10.33;91.62;102450.94;5037581;28;20721;-66
2022/05/06 01:12:44;;;;;;;120.63;63.42;;;;;;;10.32;91.59;102445.63;5017626;23;20046;-66
2022/05/06 01:15:20;;;;;;;127.47;66.32;;;;;;;10.32;91.82;102443.75;4969924;28;20041;-65
2022/05/06 01:17:50;;;;;;;124.70;66.53;;;;;;;10.25;92.04;102451.06;4981192;28;20027;-66
2022/05/06 01:20:16;;;;;;;125.55;65.60;;;;;;;10.23;91.68;102449.47;4982728;28;20673;-67
2022/05/06 01:22:49;;;;;;;114.60;65.15;;;;;;;10.22;92.14;102451.38;4983627;28;20704;-66
2022/05/06 01:25:16;;;;;;;125.65;68.50;;;;;;;10.19;92.03;102457.28;4984553;28;20028;-66
2022/05/06 01:27:47;;;;;;;121.32;68.10;;;;;;;10.14;92.13;102457.84;4966464;28;20034;-67
2022/05/06 01:30:36;;;;;;;120.05;65.93;;;;;;;10.14;92.23;102459.72;4987033;28;20057;-66
2022/05/06 01:33:06;;;;;;;114.38;65.72;;;;;;;10.08;91.46;102460.47;4978117;28;20710;-67
2022/05/06 01:35:39;;;;;;;123.05;64.65;;;;;;;10.06;92.07;102455.16;4982708;28;20037;-67
2022/05/06 01:38:06;;;;;;;123.68;66.60;;;;;;;10.02;92.08;102459.31;4994904;28;20345;-66
2022/05/06 01:40:47;;;;;;;121.55;64.80;;;;;;;10.02;92.54;102455.72;4983701;28;20014;-66
2022/05/06 01:43:15;;;;;;;116.50;63.35;;;;;;;9.98;92.47;102449.75;4969144;28;20374;-66
2022/05/06 01:45:47;;;;;;;121.30;65.95;;;;;;;9.94;92.43;102451.19;4998429;28;20026;-67
2022/05/06 01:48:16;;;;;;;133.57;67.20;;;;;;;9.98;92.60;102457.13;4983646;28;20126;-66
2022/05/06 01:50:42;;;;;;;132.35;69.95;;;;;;;9.97;92.80;102460.94;4982026;28;20060;-66
2022/05/06 01:53:09;;;;;;;145.70;70.55;;;;;;;9.95;92.98;102458.38;4984461;28;20113;-66
2022/05/06 01:55:34;;;;;;;193.25;71.78;;;;;;;9.88;93.69;102460.16;4997147;28;20044;-66
2022/05/06 01:58:00;;;;;;;159.27;67.95;;;;;;;9.85;93.77;102453.16;5000666;28;20026;-66
2022/05/06 02:00:25;;;;;;;157.82;69.85;;;;;;;9.84;94.12;102459.69;4983110;28;20038;-66
2022/05/06 02:02:51;;;;;;;147.30;66.75;;;;;;;9.82;94.42;102459.00;4981953;28;20037;-66
2022/05/06 02:05:17;;;;;;;161.50;65.38;;;;;;;9.79;94.97;102453.06;4992920;28;20094;-66
2022/05/06 02:07:43;;;;;;;159.18;66.60;;;;;;;9.76;94.76;102450.66;5003415;28;20022;-66
2022/05/06 02:10:08;;;;;;;177.90;63.00;;;;;;;9.74;94.98;102453.59;5003515;28;20035;-66
2022/05/06 02:12:33;;;;;;;148.93;63.28;;;;;;;9.75;95.62;102452.56;4981639;28;20046;-66
2022/05/06 02:14:59;;;;;;;199.40;61.97;;;;;;;9.75;95.59;102451.72;4992024;28;20455;-66
2022/05/06 02:17:25;;;;;;;143.82;61.35;;;;;;;9.75;95.84;102457.22;5002016;28;20053;-66
2022/05/06 02:19:50;;;;;;;140.60;60.08;;;;;;;9.79;96.15;102450.31;5003781;28;20033;-66
2022/05/06 02:22:15;;;;;;;183.85;60.65;;;;;;;9.76;96.03;102459.75;4984542;28;20552;-66
2022/05/06 02:24:42;;;;;;;150.98;59.35;;;;;;;9.75;96.07;102452.56;4990526;28;20030;-67
2022/05/06 02:27:07;;;;;;;166.55;59.70;;;;;;;9.74;96.39;102456.34;5002342;28;20221;-66
2022/05/06 02:29:33;;;;;;;168.25;60.15;;;;;;;9.76;97.08;102453.41;4984172;28;20469;-66
2022/05/06 02:34:42;;;;;;;150.98;58.78;;;;;;;9.81;97.34;102454.56;4989915;28;20049;-66
2022/05/06 02:37:08;;;;;;;146.93;60.20;;;;;;;9.83;97.43;102457.09;4992234;28;20034;-66
2022/05/06 02:39:33;;;;;;;162.80;59.40;;;;;;;9.85;97.66;102455.06;4982702;28;20086;-66
2022/05/06 02:41:58;;;;;;;150.45;58.13;;;;;;;9.84;97.37;102453.34;4982408;28;20042;-66
2022/05/06 02:44:25;;;;;;;151.70;56.55;;;;;;;9.88;98.15;102458.28;4983850;28;20393;-66
2022/05/06 02:46:50;;;;;;;150.95;58.05;;;;;;;9.89;97.89;102456.38;5002107;28;20588;-66
2022/05/06 02:49:16;;;;;;;147.38;55.03;;;;;;;9.89;98.00;102456.38;5002812;28;20061;-66
2022/05/06 02:51:41;;;;;;;172.50;55.80;;;;;;;9.88;98.02;102462.88;5002598;28;20108;-65
2022/05/06 02:54:07;;;;;;;164.10;55.13;;;;;;;9.88;97.97;102460.16;4994725;28;20031;-66
2022/05/06 02:56:33;;;;;;;150.95;53.33;;;;;;;9.84;98.18;102459.69;5001135;28;20076;-66
2022/05/06 02:58:58;;;;;;;158.50;54.28;;;;;;;9.84;98.41;102459.69;5006607;28;20647;-66
2022/05/06 03:01:24;;;;;;;147.25;53.05;;;;;;;9.88;98.91;102462.88;5006849;28;20396;-66
2022/05/06 03:03:51;;;;;;;150.77;51.63;;;;;;;9.87;98.70;102464.78;4987197;28;20030;-66
2022/05/06 03:06:17;;;;;;;200.30;56.13;;;;;;;9.84;99.17;102462.44;4985890;28;20388;-66
2022/05/06 03:08:43;;;;;;;145.43;53.70;;;;;;;9.87;99.32;102461.19;4987554;28;20029;-66
2022/05/06 03:11:08;;;;;;;177.07;53.85;;;;;;;9.87;99.36;102462.03;4987077;28;20050;-66
2022/05/06 03:13:33;;;;;;;154.20;52.33;;;;;;;9.87;99.34;102458.44;4986053;28;20051;-66
2022/05/06 03:15:59;;;;;;;129.50;50.95;;;;;;;9.88;99.36;102457.41;4979021;28;20042;-66
2022/05/06 03:18:26;;;;;;;175.23;52.22;;;;;;;9.85;99.14;102458.63;4985991;28;20607;-66
2022/05/06 03:20:51;;;;;;;155.77;50.28;;;;;;;9.83;99.54;102455.25;4985855;28;20036;-66
2022/05/06 03:23:16;;;;;;;161.60;49.40;;;;;;;9.83;99.30;102454.38;4986420;28;20496;-66
2022/05/06 03:25:42;;;;;;;135.35;49.55;;;;;;;9.88;100.00;102450.03;4991555;28;20041;-66
2022/05/06 03:28:10;;;;;;;149.32;50.78;;;;;;;9.87;100.00;102447.47;4985221;28;20022;-66
2022/05/06 03:30:39;;;;;;;136.80;51.40;;;;;;;9.89;99.90;102450.91;4987177;28;20031;-66
2022/05/06 03:33:08;;;;;;;135.45;50.85;;;;;;;9.94;100.00;102455.81;4984345;28;20029;-66
2022/05/06 03:35:34;;;;;;;146.57;47.47;;;;;;;9.91;100.00;102453.44;4984581;28;20481;-66
2022/05/06 03:37:59;;;;;;;157.73;47.17;;;;;;;9.88;100.00;102460.16;4986787;28;20188;-66
2022/05/06 03:40:24;;;;;;;138.70;48.67;;;;;;;9.88;100.00;102458.28;4984951;28;20033;-66
2022/05/06 03:42:49;;;;;;;152.90;48.72;;;;;;;9.86;100.00;102456.75;4986851;28;20042;-66
2022/05/06 03:45:15;;;;;;;130.90;47.95;;;;;;;9.87;100.00;102456.56;4996842;28;20383;-66
2022/05/06 03:47:40;;;;;;;138.50;50.95;;;;;;;9.87;100.00;102453.81;5004200;28;20034;-66
2022/05/06 03:52:51;;;;;;;130.38;47.58;;;;;;;9.87;100.00;102455.69;4966695;28;20046;-66
2022/05/06 03:55:17;;;;;;;137.60;45.67;;;;;;;9.87;100.00;102461.19;4992646;28;20026;-67
2022/05/06 03:57:42;;;;;;;149.10;47.60;;;;;;;9.88;100.00;102454.66;5005441;28;20080;-66
2022/05/06 04:00:09;;;;;;;141.50;48.50;;;;;;;9.88;100.00;102458.28;5004647;28;20034;-66
2022/05/06 04:02:36;;;;;;;141.43;47.30;;;;;;;9.92;100.00;102455.16;4985600;28;20030;-66
2022/05/06 04:05:02;;;;;;;207.35;48.97;;;;;;;9.88;100.00;102463.78;4998282;28;20021;-66
2022/05/06 04:07:27;;;;;;;188.30;47.42;;;;;;;9.87;100.00;102452.97;5004638;28;20109;-66
2022/05/06 04:09:53;;;;;;;139.63;45.65;;;;;;;9.88;100.00;102463.78;5005561;28;20101;-66
2022/05/06 04:12:18;;;;;;;176.20;47.40;;;;;;;9.90;100.00;102462.72;4985378;28;20038;-66
2022/05/06 04:14:43;;;;;;;155.40;47.10;;;;;;;9.90;100.00;102465.47;4989276;28;20081;-66
2022/05/06 04:17:09;;;;;;;143.30;47.35;;;;;;;9.93;100.00;102462.34;4985131;28;20023;-67
2022/05/06 04:19:34;;;;;;;149.90;46.80;;;;;;;9.92;100.00;102466.97;4986560;28;20049;-66
2022/05/06 04:24:43;;;;;;;158.82;43.92;;;;;;;9.84;100.00;102467.06;4994308;28;20044;-67
2022/05/06 04:27:08;;;;;;;136.43;43.63;;;;;;;9.86;100.00;102462.22;5005730;28;20022;-66
2022/05/06 04:29:33;;;;;;;154.10;41.65;;;;;;;9.85;100.00;102464.13;4995224;28;20042;-66
2022/05/06 04:31:58;;;;;;;167.98;39.80;;;;;;;9.81;100.00;102462.78;4966630;28;20675;-66
2022/05/06 04:34:24;;;;;;;123.68;36.90;;;;;;;9.80;100.00;102460.25;4991697;28;20053;-65
2022/05/06 04:36:49;;;;;;;139.27;37.95;;;;;;;9.75;100.00;102470.94;4987735;28;20035;-65
2022/05/06 04:39:16;;;;;;;157.82;35.65;;;;;;;9.67;100.00;102469.09;4983786;28;20477;-67
2022/05/06 04:41:42;;;;;;;128.45;34.47;;;;;;;9.64;100.00;102471.38;4987254;28;20040;-66
2022/05/06 04:44:07;;;;;;;143.45;35.38;;;;;;;9.60;100.00;102482.69;4984911;28;20035;-66
2022/05/06 04:46:32;;;;;;;119.63;33.70;;;;;;;9.59;100.00;102481.00;4983720;28;20089;-66
2022/05/06 04:48:58;;;;;;;110.93;32.88;;;;;;;9.54;100.00;102477.09;4985457;28;20472;-67
2022/05/06 04:51:23;;;;;;;87.43;31.77;;;;;;;9.50;100.00;102482.09;4991820;28;20031;-66
2022/05/06 04:53:50;;;;;;;78.10;30.40;;;;;;;9.47;100.00;102482.47;5004766;28;20041;-66
2022/05/06 04:56:16;;;;;;;82.15;29.77;;;;;;;9.46;100.00;102488.13;4974118;28;20030;-66
2022/05/06 04:58:41;;;;;;;77.60;28.50;;;;;;;9.45;100.00;102494.66;5003335;28;20018;-66
2022/05/06 05:01:06;;;;;;;97.85;29.10;;;;;;;9.42;100.00;102501.34;4988761;28;20042;-66
2022/05/06 05:03:32;;;;;;;105.88;29.00;;;;;;;9.38;100.00;102496.41;4977531;28;20089;-65
2022/05/06 05:05:57;;;;;;;88.70;28.10;;;;;;;9.38;99.92;102504.63;4970815;28;20089;-65
2022/05/06 05:08:22;;;;;;;100.25;27.60;;;;;;;9.36;100.00;102497.44;5003617;28;20041;-65
2022/05/06 05:10:48;;;;;;;81.35;28.45;;;;;;;9.41;100.00;102507.03;5003181;28;20053;-65
2022/05/06 05:13:14;;;;;;;68.20;25.83;;;;;;;9.36;100.00;102511.16;5002759;28;20499;-65
2022/05/06 05:15:39;;;;;;;52.33;27.05;;;;;;;9.40;100.00;102524.53;4986203;28;20073;-66
2022/05/06 05:18:04;;;;;;;67.40;27.75;;;;;;;9.43;100.00;102524.13;4986012;28;20574;-65
2022/05/06 05:20:30;;;;;;;73.03;28.23;;;;;;;9.43;100.00;102526.88;4982177;28;20130;-66
2022/05/06 05:22:55;;;;;;;65.45;27.77;;;;;;;9.50;100.00;102527.88;4965250;28;20038;-65
2022/05/06 05:25:20;;;;;;;69.78;28.00;;;;;;;9.46;100.00;102535.59;4963584;28;20026;-66
2022/05/06 05:27:46;;;;;;;74.43;24.67;;;;;;;9.46;100.00;102529.28;4964155;28;20107;-65
2022/05/06 05:30:11;;;;;;;63.95;26.65;;;;;;;9.46;100.00;102523.78;4963239;28;20485;-66
2022/05/06 05:32:37;;;;;;;77.00;26.52;;;;;;;9.45;99.76;102524.81;4963447;28;20049;-65
2022/05/06 05:35:02;;;;;;;75.45;27.63;;;;;;;9.47;100.00;102528.22;4963627;28;20027;-65
2022/05/06 05:37:28;;;;;;;69.90;26.27;;;;;;;9.52;100.00;102523.06;4963057;28;20034;-65
2022/05/06 05:39:53;;;;;;;75.72;27.35;;;;;;;9.52;100.00;102523.06;4963491;28;20106;-66
2022/05/06 05:42:23;;;;;;;70.72;26.55;;;;;;;9.56;100.00;102529.88;4961734;28;20034;-66
2022/05/06 05:50:17;;;;;;;72.47;24.83;;;;;;;9.65;99.94;102522.44;4962603;28;20376;-66
2022/05/06 05:52:43;;;;;;;67.72;24.77;;;;;;;9.66;99.82;102532.38;4962109;28;20122;-65
2022/05/06 05:55:08;;;;;;;67.97;24.02;;;;;;;9.66;99.48;102535.97;4965244;28;20114;-66
2022/05/06 05:57:34;;;;;;;61.25;23.95;;;;;;;9.71;99.51;102521.72;4982705;28;20041;-66
2022/05/06 05:59:59;;;;;;;54.00;24.55;;;;;;;9.77;99.95;102523.72;4982693;28;20037;-66
2022/05/06 06:02:25;;;;;;;54.60;22.30;;;;;;;9.74;98.26;102526.84;4981049;28;20023;-65
2022/05/06 06:04:51;;;;;;;70.10;21.52;;;;;;;9.69;98.26;102521.91;4983024;28;20030;-65
2022/05/06 06:07:18;;;;;;;59.25;23.83;;;;;;;9.72;98.04;102518.78;4981687;28;20484;-66
2022/05/06 06:09:43;;;;;;;50.50;24.27;;;;;;;9.83;97.88;102523.84;4982177;28;20207;-65
2022/05/06 06:12:09;;;;;;;48.17;21.85;;;;;;;9.90;98.28;102523.09;4982725;28;20034;-65
2022/05/06 06:14:34;;;;;;;59.53;22.67;;;;;;;9.94;98.03;102528.03;4982548;28;20033;-65
2022/05/06 06:16:59;;;;;;;56.10;23.13;;;;;;;9.96;97.49;102522.34;4981676;28;20459;-66
2022/05/06 06:19:24;;;;;;;46.33;21.08;;;;;;;9.96;97.40;102527.84;4982102;28;20062;-66
2022/05/06 06:21:50;;;;;;;55.28;21.27;;;;;;;9.95;96.74;102528.88;4982074;28;20183;-65
2022/05/06 06:24:15;;;;;;;45.05;22.50;;;;;;;9.96;96.78;102522.34;4982128;28;20203;-65
2022/05/06 06:26:40;;;;;;;43.72;20.67;;;;;;;10.03;96.89;102526.91;4981981;28;20436;-65
2022/05/06 06:29:06;;;;;;;52.10;19.98;;;;;;;10.02;96.51;102525.19;4982598;28;20312;-66
2022/05/06 06:31:32;;;;;;;66.03;20.73;;;;;;;10.03;96.00;102523.31;4981682;28;20026;-65
2022/05/06 06:34:01;;;;;;;77.18;21.88;;;;;;;10.02;95.97;102522.44;4986735;28;20025;-65
2022/05/06 06:36:27;;;;;;;47.38;21.83;;;;;;;10.07;96.60;102514.50;4985421;28;20022;-65
2022/05/06 06:38:52;;;;;;;43.17;21.90;;;;;;;10.16;96.76;102518.03;4986624;28;20026;-66
2022/05/06 06:41:20;;;;;;;46.13;21.92;;;;;;;10.28;96.97;102526.69;4986842;28;20508;-64
2022/05/06 06:43:46;;;;;;;43.83;22.63;;;;;;;10.41;96.38;102528.81;4986081;28;20018;-65
2022/05/06 06:46:11;;;;;;;47.10;22.88;;;;;;;10.51;96.13;102521.13;4985034;28;20543;-65
2022/05/06 06:48:39;;;;;;;46.10;23.63;;;;;;;10.61;95.87;102527.19;4987255;28;20025;-66
2022/05/06 06:51:04;;;;;;;38.88;23.25;;;;;;;10.59;95.06;102530.16;4986836;28;20022;-66
2022/05/06 06:53:30;;;;;;;40.92;22.73;;;;;;;10.71;96.25;102533.25;4985570;28;20121;-66
2022/05/06 06:55:55;;;;;;;38.20;21.95;;;;;;;10.69;95.08;102535.31;4986295;28;20080;-66
2022/05/06 06:58:20;;;;;;;37.35;20.67;;;;;;;10.65;94.88;102548.63;4985651;28;20033;-66
2022/05/06 07:00:46;;;;;;;42.47;21.77;;;;;;;10.65;94.83;102542.25;4985606;28;20027;-65
2022/05/06 07:03:12;;;;;;;37.17;20.52;;;;;;;10.73;94.89;102549.53;4985499;28;20547;-66
2022/05/06 07:11:52;;;;;;;42.70;22.42;;;;;;;10.76;94.78;102551.94;4985850;28;20207;-66
2022/05/06 07:13:53;;;;;;;47.00;23.63;;;;;;;10.79;94.25;102559.78;4985804;28;20512;-66
2022/05/06 07:16:18;;;;;;;39.38;22.88;;;;;;;10.80;94.84;102567.84;4985042;28;20038;-65
2022/05/06 07:18:43;;;;;;;42.13;24.00;;;;;;;10.85;95.35;102561.78;4985849;28;20038;-66
2022/05/06 07:21:09;;;;;;;47.17;24.77;;;;;;;10.80;94.45;102565.09;4984888;28;20030;-64
2022/05/06 07:23:34;;;;;;;45.42;26.40;;;;;;;10.89;95.17;102566.69;4969842;28;20456;-66
2022/05/06 07:25:59;;;;;;;47.38;25.45;;;;;;;10.90;94.84;102560.16;4965759;28;20038;-66
2022/05/06 07:28:25;;;;;;;45.30;24.42;;;;;;;10.96;94.84;102560.44;4966082;28;20073;-65
2022/05/06 07:30:50;;;;;;;47.10;27.60;;;;;;;11.03;94.66;102567.72;4965540;28;20034;-66
2022/05/06 07:33:15;;;;;;;48.28;28.00;;;;;;;11.04;94.01;102574.06;4964864;28;20023;-66
2022/05/06 07:35:40;;;;;;;49.72;28.17;;;;;;;11.11;94.23;102575.03;4974758;28;20034;-66
2022/05/06 07:38:05;;;;;;;45.30;28.38;;;;;;;11.09;93.47;102575.19;4985420;28;20056;-67
2022/05/06 07:40:31;;;;;;;49.47;27.77;;;;;;;11.19;94.69;102583.16;4984757;28;20038;-66
2022/05/06 07:42:56;;;;;;;50.35;29.52;;;;;;;11.21;94.34;102581.06;4985223;28;20036;-66
2022/05/06 07:45:21;;;;;;;55.97;31.33;;;;;;;11.24;94.97;102582.56;4984426;28;20033;-66
2022/05/06 07:47:47;;;;;;;53.80;30.50;;;;;;;11.22;93.54;102587.41;4984246;28;20030;-66
2022/05/06 07:50:12;;;;;;;52.42;31.02;;;;;;;11.21;93.88;102589.31;4984676;28;20035;-65
2022/05/06 07:52:37;;;;;;;52.83;29.50;;;;;;;11.26;94.08;102592.34;4985270;28;20037;-66
2022/05/06 07:55:04;;;;;;;56.88;29.75;;;;;;;11.33;93.84;102582.25;4985564;28;20038;-66
2022/05/06 07:57:29;;;;;;;54.65;31.25;;;;;;;11.44;94.66;102590.00;4984744;28;20034;-66
2022/05/06 07:59:55;;;;;;;55.45;30.77;;;;;;;11.55;93.95;102590.56;4966398;28;20035;-66
2022/05/06 08:05:04;;;;;;;59.58;33.60;;;;;;;11.72;93.46;102588.44;4965788;28;20049;-65
2022/05/06 08:07:29;;;;;;;57.92;33.30;;;;;;;11.83;92.76;102586.03;4964259;28;20237;-66
2022/05/06 08:09:56;;;;;;;57.67;33.17;;;;;;;11.88;91.50;102589.03;4965444;28;20101;-66
2022/05/06 08:12:21;;;;;;;58.58;33.95;;;;;;;11.94;92.11;102592.91;4964693;28;20051;-66
2022/05/06 08:14:46;;;;;;;59.55;34.17;;;;;;;12.09;92.03;102590.94;4965257;28;20089;-66
2022/05/06 08:17:12;;;;;;;54.28;32.05;;;;;;;12.18;90.38;102594.41;4964458;28;20497;-65
2022/05/06 08:19:37;;;;;;;55.55;33.53;;;;;;;12.20;89.56;102586.78;4965017;28;20033;-66
2022/05/06 08:22:03;;;;;;;55.80;31.40;;;;;;;12.33;89.61;102599.81;4964464;28;20280;-66
2022/05/06 08:24:28;;;;;;;50.65;30.85;;;;;;;12.51;89.82;102594.66;4970288;28;20073;-66
2022/05/06 08:26:53;;;;;;;54.60;32.15;;;;;;;12.67;88.46;102599.00;4983084;28;20311;-66
2022/05/06 08:29:19;;;;;;;51.22;30.95;;;;;;;12.70;87.46;102584.81;4984002;28;20021;-66
2022/05/06 08:31:44;;;;;;;50.28;31.15;;;;;;;12.90;87.58;102584.94;4983763;28;20018;-66
2022/05/06 08:34:12;;;;;;;45.78;29.02;;;;;;;13.15;85.42;102588.03;4983819;28;20105;-66
2022/05/06 08:36:41;;;;;;;50.63;31.15;;;;;;;13.41;85.35;102581.81;4983749;28;20030;-66
2022/05/06 08:39:07;;;;;;;48.33;29.45;;;;;;;13.74;82.42;102584.66;4985078;28;20018;-66
2022/05/06 08:41:35;;;;;;;45.30;28.90;;;;;;;13.96;81.27;102577.88;4983855;28;20037;-66
2022/05/06 08:50:50;;;;;;;45.57;28.13;;;;;;;14.23;81.30;102584.28;4984061;28;20138;-66
2022/05/06 08:52:25;;;;;;;46.88;28.92;;;;;;;14.92;77.27;102562.72;4963580;28;20136;-66
2022/05/06 08:54:51;;;;;;;43.90;29.00;;;;;;;15.06;76.23;102561.63;4963189;28;20042;-67
2022/05/06 08:57:16;;;;;;;42.17;28.55;;;;;;;15.08;75.36;102562.22;4964417;28;20026;-66
2022/05/06 08:59:42;;;;;;;45.75;27.85;;;;;;;15.14;74.83;102568.81;4964755;28;20035;-67
2022/05/06 09:02:07;;;;;;;42.58;27.25;;;;;;;15.21;74.08;102561.34;4966722;28;20034;-66
2022/05/06 09:04:39;;;;;;;41.50;25.77;;;;;;;15.40;74.24;102567.81;4970498;28;20100;-66
2022/05/06 09:07:21;;;;;;;42.63;27.13;;;;;;;15.96;72.96;102567.91;4977285;28;20022;-66
2022/05/06 09:10:14;;;;;;;45.20;28.85;;;;;;;16.39;72.65;102563.53;4969448;28;20030;-67
2022/05/06 09:12:45;;;;;;;39.55;25.92;;;;;;;16.84;67.46;102565.00;4964712;28;20544;-67
2022/05/06 09:17:56;;;;;;;35.88;24.55;;;;;;;18.01;65.00;102570.28;4964466;28;20316;-67
2022/05/06 09:20:23;;;;;;;33.22;22.90;;;;;;;19.98;58.54;102562.91;4976231;28;20469;-68
2022/05/06 09:22:51;;;;;;;36.00;23.55;;;;;;;22.44;52.31;102553.72;4967972;28;20066;-69
2022/05/06 09:25:38;;;;;;;35.00;24.37;;;;;;;24.32;51.20;102562.78;4977468;28;20109;-68
2022/05/06 09:28:04;;;;;;;;;;;;;;;25.78;49.08;102563.72;4979240;28;20102;-68
2022/05/06 09:30:30;;;;;;;32.55;21.58;;;;;;;26.35;41.40;102560.13;4967489;28;19973;-67
2022/05/06 09:32:55;;;;;;;31.60;20.83;;;;;;;26.82;37.66;102550.13;4968462;28;20116;-67
2022/05/06 09:35:26;;;;;;;30.23;20.20;;;;;;;27.11;39.69;102554.84;4968749;28;20481;-68
2022/05/06 09:37:51;;;;;;;32.63;21.92;;;;;;;27.31;37.14;102548.94;4977860;28;20297;-67
2022/05/06 09:40:21;;;;;;;29.10;20.17;;;;;;;27.78;35.97;102546.31;4978125;28;20448;-69
2022/05/06 09:42:52;;;;;;;30.70;21.35;;;;;;;28.12;37.34;102549.69;4976772;28;20832;-67
2022/05/06 09:45:29;;;;;;;28.90;19.50;;;;;;;28.47;37.17;102550.25;4972166;28;20154;-68
2022/05/06 09:47:58;;;;;;;29.10;20.73;;;;;;;28.87;34.75;102536.47;4970375;28;20479;-68
2022/05/06 09:50:36;;;;;;;31.88;21.30;;;;;;;29.29;36.10;102535.28;4967122;28;21297;-68
2022/05/06 09:53:03;;;;;;;29.40;20.20;;;;;;;29.52;33.13;102541.84;4972749;28;20427;-68
2022/05/06 09:55:29;;;;;;;28.77;19.45;;;;;;;29.46;32.02;102543.97;4966757;28;20040;-68
2022/05/06 09:57:59;;;;;;;28.63;20.83;;;;;;;29.67;31.63;102541.53;4965731;28;20125;-68
2022/05/06 10:00:28;;;;;;;25.95;18.30;;;;;;;29.31;31.84;102535.81;4982370;28;20029;-68
2022/05/06 10:02:55;;;;;;;28.48;20.13;;;;;;;28.67;32.14;102535.72;4981052;28;20088;-68
2022/05/06 10:05:20;;;;;;;25.33;17.50;;;;;;;28.60;32.41;102535.31;4980066;28;20026;-67
2022/05/06 10:07:46;;;;;;;24.13;16.65;;;;;;;28.14;33.60;102533.28;4981239;28;20701;-68
2022/05/06 10:10:25;;;;;;;25.45;16.98;;;;;;;28.78;34.44;102527.84;4982880;28;20037;-67
2022/05/06 10:13:02;;;;;;;26.60;17.05;;;;;;;29.20;34.17;102531.56;4977467;28;20676;-67
2022/05/06 10:15:29;;;;;;;23.77;16.23;;;;;;;29.35;30.65;102534.03;4983017;28;20042;-67
2022/05/06 10:17:59;;;;;;;25.05;17.67;;;;;;;29.44;32.51;102528.44;4982348;28;20032;-68
2022/05/06 10:20:37;;;;;;;25.35;16.98;;;;;;;30.22;33.44;102520.63;4981987;28;20025;-68
2022/05/06 10:23:13;;;;;;;25.25;17.13;;;;;;;30.83;30.73;102524.63;4983589;28;20053;-67
2022/05/06 10:25:48;;;;;;;23.83;15.88;;;;;;;30.81;30.55;102512.75;4982422;28;20054;-67
2022/05/06 10:34:09;;;;;;;25.15;15.65;;;;;;;31.61;29.46;102507.72;4983427;28;20448;-67
2022/05/06 10:36:46;;;;;;;23.27;15.30;;;;;;;32.23;29.27;102504.50;4982242;28;20027;-67
2022/05/06 10:39:19;;;;;;;22.33;14.95;;;;;;;31.87;28.71;102507.75;4978806;28;20042;-67
2022/05/06 10:42:07;;;;;;;22.88;14.55;;;;;;;32.07;28.08;102506.22;4991133;28;20033;-67
2022/05/06 10:44:37;;;;;;;19.35;12.25;;;;;;;31.69;28.40;102498.38;5003026;28;20030;-67
2022/05/06 10:47:38;;;;;;;20.25;13.20;;;;;;;31.86;29.49;102488.19;4981621;28;20019;-67
2022/05/06 10:50:14;;;;;;;21.67;13.23;;;;;;;31.55;29.27;102496.88;4980174;28;20088;-67
2022/05/06 10:52:40;;;;;;;20.92;12.57;;;;;;;31.37;27.18;102496.03;4992878;28;20038;-66
2022/05/06 10:55:06;;;;;;;20.23;13.32;;;;;;;30.77;29.28;102485.34;4979314;28;20022;-68
2022/05/06 10:57:44;;;;;;;19.90;12.50;;;;;;;29.64;29.70;102488.34;4983413;28;20096;-69
2022/05/06 11:00:10;;;;;;;23.73;14.95;;;;;;;28.44;31.85;102489.53;4982987;28;20465;-68
2022/05/06 11:02:38;;;;;;;19.95;13.35;;;;;;;26.91;33.63;102491.91;4982504;28;20037;-68
2022/05/06 11:05:06;;;;;;;22.42;14.23;;;;;;;25.62;35.72;102482.19;4982462;28;20023;-68
2022/05/06 11:07:32;;;;;;;;;;;;;;;25.53;38.85;102483.09;4963875;28;20402;-68
2022/05/06 11:09:59;;;;;;;24.53;14.20;;;;;;;24.48;39.50;102484.13;4969316;28;19918;-69
2022/05/06 11:12:34;;;;;;;19.63;13.18;;;;;;;24.30;41.79;102477.16;4980827;28;20085;-69
2022/05/06 11:15:03;;;;;;;22.73;14.10;;;;;;;23.90;41.08;102481.69;4979671;28;20172;-69
2022/05/06 11:17:33;;;;;;;22.05;12.68;;;;;;;23.63;40.78;102476.34;4989892;28;20014;-69
2022/05/06 11:20:04;;;;;;;23.10;13.20;;;;;;;23.50;41.73;102476.84;5001324;28;20032;-69
2022/05/06 11:22:33;;;;;;;24.20;14.65;;;;;;;23.41;41.95;102472.91;5005564;28;20191;-69
2022/05/06 11:24:59;;;;;;;23.40;14.68;;;;;;;23.45;41.06;102477.69;5006427;28;20026;-69
2022/05/06 11:27:25;;;;;;;25.58;15.05;;;;;;;23.91;43.03;102474.09;5006347;28;20034;-69
2022/05/06 11:29:56;;;;;;;27.38;15.68;;;;;;;24.03;43.06;102467.09;4999346;28;20087;-70
2022/05/06 11:32:23;;;;;;;26.40;14.55;;;;;;;24.11;42.49;102473.25;5003391;28;20033;-69
2022/05/06 11:35:01;;;;;;;22.35;13.45;;;;;;;23.94;42.13;102465.13;5005796;28;20030;-69
2022/05/06 11:37:31;;;;;;;24.40;14.02;;;;;;;23.37;42.22;102457.75;5000566;28;20119;-69
2022/05/06 11:43:04;;;;;;;25.15;14.77;;;;;;;23.34;42.47;102453.56;4939719;29;20039;-69
2022/05/06 11:48:18;;;;;;;25.45;13.98;;;;;;;22.99;42.71;102452.34;5005732;28;20125;-69
2022/05/06 11:50:45;;;;;;;22.25;13.15;;;;;;;22.80;42.64;102449.16;4997207;28;20046;-68
2022/05/06 11:53:14;;;;;;;24.92;14.52;;;;;;;23.11;44.48;102446.50;4966538;28;20038;-68